Time;durP1;ratioP1;P1;durP2;ratioP2;P2;SDS_P1;SDS_P2;PMS_P1;PMS_P2;Temp;Humidity;BMP_temperature;BMP_pressure;BME280_temperature;BME280_humidity;BME280_pressure;Samples;Min_cycle;Max_cycle;Signal;HPM_P1;HPM_P2
2021/04/18 00:01:05;;;;;;;;;;;;;;;8.25;66.41;99717.84;5094144;28;20273;-63
2021/04/18 00:03:33;;;;;;;;;;;;;;;8.24;65.95;99711.03;5094201;28;19924;-63
2021/04/18 00:06:02;;;;;;;;;;;;;;;8.22;66.16;99706.78;5094320;28;20415;-63
2021/04/18 00:08:30;;;;;;;;;;;;;;;8.21;66.08;99711.00;5093993;28;20410;-63
2021/04/18 00:11:01;;;;;;;;;;;;;;;8.22;66.34;99707.63;5094202;28;19931;-63
2021/04/18 00:13:32;;;;;;;;;;;;;;;8.20;66.25;99703.38;5094146;28;20079;-63
2021/04/18 00:16:05;;;;;;;;;;;;;;;8.17;66.23;99708.44;5094090;28;20383;-63
2021/04/18 00:18:36;;;;;;;;;;;;;;;8.14;65.97;99704.16;5094322;28;19927;-63
2021/04/18 00:21:04;;;;;;;;;;;;;;;8.13;66.57;99704.16;5094180;28;19950;-63
2021/04/18 00:23:36;;;;;;;;;;;;;;;8.11;66.52;99699.91;5093300;28;19974;-64
2021/04/18 00:26:04;;;;;;;;;;;;;;;8.13;66.58;99696.53;5094264;28;19952;-63
2021/04/18 00:28:34;;;;;;;;;;;;;;;8.16;66.95;99696.56;5093829;28;19924;-63
2021/04/18 00:31:04;;;;;;;;;;;;;;;8.15;67.46;99705.03;5094459;28;19974;-63
2021/04/18 00:33:36;;;;;;;;;;;;;;;8.16;67.03;99694.03;5094177;28;19925;-64
2021/04/18 00:36:11;;;;;;;;;;;;;;;8.15;66.74;99698.25;5093854;28;19970;-63
2021/04/18 00:38:39;;;;;;;;;;;;;;;8.17;66.72;99695.72;5094137;28;19978;-64
2021/04/18 00:41:07;;;;;;;;;;;;;;;8.16;66.59;99697.41;5094021;28;20027;-64
2021/04/18 00:43:41;;;;;;;;;;;;;;;8.15;66.43;99692.31;5093738;28;20027;-63
2021/04/18 00:46:09;;;;;;;;;;;;;;;8.13;66.15;99693.13;5098008;28;19924;-63
2021/04/18 00:48:41;;;;;;;;;;;;;;;8.13;66.78;99688.06;5097590;28;20352;-63
2021/04/18 00:51:10;;;;;;;;;;;;;;;8.13;66.64;99677.88;5097870;28;19924;-63
2021/04/18 00:53:40;;;;;;;;;;;;;;;8.13;66.72;99681.28;5097848;28;19927;-63
2021/04/18 00:56:12;;;;;;;;;;;;;;;8.11;66.46;99678.72;5097910;28;20019;-63
2021/04/18 00:58:45;;;;;;;;;;;;;;;8.10;66.53;99682.97;5097524;28;20396;-63
2021/04/18 01:01:13;;;;;;;;;;;;;;;8.11;66.80;99681.25;5097717;28;20399;-63
2021/04/18 01:03:41;;;;;;;;;;;;;;;8.08;66.27;99677.03;5097397;28;20030;-63
2021/04/18 01:06:10;;;;;;;;;;;;;;;8.05;66.91;99669.38;5097568;28;20021;-63
2021/04/18 01:08:45;;;;;;;;;;;;;;;8.04;66.76;99672.72;5097571;28;19924;-63
2021/04/18 01:11:14;;;;;;;;;;;;;;;8.04;67.25;99675.28;5097091;28;20288;-63
2021/04/18 01:13:47;;;;;;;;;;;;;;;8.02;67.33;99668.47;5097744;28;20361;-63
2021/04/18 01:16:18;;;;;;;;;;;;;;;8.00;67.57;99659.97;5097458;28;20390;-63
2021/04/18 01:18:47;;;;;;;;;;;;;;;7.98;67.73;99667.59;5097571;28;19924;-63
2021/04/18 01:21:17;;;;;;;;;;;;;;;8.00;67.79;99670.16;5096928;28;19924;-63
2021/04/18 01:23:56;;;;;;;;;;;;;;;7.97;67.34;99660.81;5096332;28;20396;-63
2021/04/18 01:26:32;;;;;;;;;;;;;;;7.98;67.33;99662.53;5096967;28;19924;-63
2021/04/18 01:29:01;;;;;;;;;;;;;;;7.96;67.36;99655.72;5097223;28;19959;-63
2021/04/18 01:31:32;;;;;;;;;;;;;;;7.98;67.54;99661.66;5097124;28;20400;-63
2021/04/18 01:34:06;;;;;;;;;;;;;;;7.97;67.70;99650.66;5097128;28;19932;-63
2021/04/18 01:36:43;;;;;;;;;;;;;;;7.96;67.42;99654.03;5096983;28;19946;-63
2021/04/18 01:39:11;;;;;;;;;;;;;;;7.95;67.41;99662.50;5096762;28;19931;-63
2021/04/18 01:41:43;;;;;;;;;;;;;;;7.97;67.66;99649.78;5096648;28;20392;-63
2021/04/18 01:44:13;;;;;;;;;;;;;;;7.96;67.61;99654.03;5078569;28;19979;-63
2021/04/18 01:46:47;;;;;;;;;;;;;;;7.93;67.55;99658.22;5096865;28;19947;-63
2021/04/18 01:49:15;;;;;;;;;;;;;;;7.91;67.41;99655.69;5096790;28;19928;-63
2021/04/18 01:51:48;;;;;;;;;;;;;;;7.89;67.67;99657.34;5096401;28;20007;-63
2021/04/18 01:54:17;;;;;;;;;;;;;;;7.94;67.88;99660.78;5096701;28;19924;-63
2021/04/18 01:56:45;;;;;;;;;;;;;;;7.94;67.77;99650.59;5095944;28;19924;-64
2021/04/18 01:59:13;;;;;;;;;;;;;;;7.94;68.37;99650.59;5096562;28;19924;-63
2021/04/18 02:01:52;;;;;;;;;;;;;;;7.93;68.15;99651.47;5096327;28;19935;-63
2021/04/18 02:04:39;;;;;;;;;;;;;;;7.90;68.21;99653.09;5096421;28;19923;-63
2021/04/18 02:07:12;;;;;;;;;;;;;;;7.88;67.98;99655.66;5096421;28;19963;-64
2021/04/18 02:09:43;;;;;;;;;;;;;;;7.88;68.07;99644.63;5096184;28;19928;-64
2021/04/18 02:12:12;;;;;;;;;;;;;;;7.90;68.10;99653.09;5096423;28;19931;-63
2021/04/18 02:14:46;;;;;;;;;;;;;;;7.91;67.83;99644.66;5096346;28;19934;-63
2021/04/18 02:17:22;;;;;;;;;;;;;;;7.90;67.94;99641.25;5096151;28;19924;-63
2021/04/18 02:19:53;;;;;;;;;;;;;;;7.88;67.95;99647.16;5096119;28;20388;-63
2021/04/18 02:22:26;;;;;;;;;;;;;;;7.90;67.95;99648.03;5078189;28;20083;-63
2021/04/18 02:24:56;;;;;;;;;;;;;;;7.90;67.98;99650.56;5095020;28;19931;-63
2021/04/18 02:27:26;;;;;;;;;;;;;;;7.87;68.22;99636.13;5096233;28;19931;-63
2021/04/18 02:29:59;;;;;;;;;;;;;;;7.85;67.89;99644.59;5095849;28;19977;-63
2021/04/18 02:32:32;;;;;;;;;;;;;;;7.83;68.32;99647.13;5078220;28;19924;-63
2021/04/18 02:35:06;;;;;;;;;;;;;;;7.83;68.31;99644.59;5095652;28;19931;-63
2021/04/18 02:37:35;;;;;;;;;;;;;;;7.83;68.82;99647.13;5095629;28;20019;-63
2021/04/18 02:40:07;;;;;;;;;;;;;;;7.81;67.75;99648.81;5095774;28;20293;-63
2021/04/18 02:42:40;;;;;;;;;;;;;;;7.81;68.52;99638.63;5095739;28;19977;-63
2021/04/18 02:45:11;;;;;;;;;;;;;;;7.80;68.35;99636.94;5096277;28;19931;-63
2021/04/18 02:47:51;;;;;;;;;;;;;;;7.77;68.63;99631.84;5095705;28;19924;-63
2021/04/18 02:50:23;;;;;;;;;;;;;;;7.78;68.65;99637.75;5095380;28;20377;-63
2021/04/18 02:52:57;;;;;;;;;;;;;;;7.79;68.92;99635.25;5095569;28;20331;-63
2021/04/18 02:55:26;;;;;;;;;;;;;;;7.79;68.25;99635.25;5077481;28;20315;-63
2021/04/18 02:58:06;;;;;;;;;;;;;;;7.81;68.31;99633.56;5095395;28;20273;-64
2021/04/18 03:00:34;;;;;;;;;;;;;;;7.79;68.62;99619.13;5095281;28;19973;-64
2021/04/18 03:03:05;;;;;;;;;;;;;;;7.77;68.58;99624.22;5095873;28;20015;-64
2021/04/18 03:05:38;;;;;;;;;;;;;;;7.75;68.69;99625.88;5095058;28;19928;-63
2021/04/18 03:08:08;;;;;;;;;;;;;;;7.72;68.89;99620.78;5094618;28;19947;-63
2021/04/18 03:10:40;;;;;;;;;;;;;;;7.73;68.68;99626.69;5095153;28;19924;-63
2021/04/18 03:16:15;;;;;;;;;;;;;;;7.74;68.91;99625.88;4272087;28;19926;-68
2021/04/18 03:19:09;;;;;;;;;;;;;;;7.74;68.56;99624.19;4974765;28;20030;-68
2021/04/18 03:21:38;;;;;;;;;;;;;;;7.73;68.78;99619.91;4976053;28;19926;-68
2021/04/18 03:24:08;;;;;;;;;;;;;;;7.75;69.08;99618.25;4975577;28;19953;-68
2021/04/18 03:26:38;;;;;;;;;;;;;;;7.69;69.02;99618.19;4991073;28;19926;-68
2021/04/18 03:29:10;;;;;;;;;;;;;;;7.66;68.96;99617.31;4990938;28;20299;-68
2021/04/18 03:31:41;;;;;;;;;;;;;;;7.67;68.99;99614.81;4975929;28;20020;-68
2021/04/18 03:34:15;;;;;;;;;;;;;;;7.68;68.90;99619.03;4975932;28;20017;-67
2021/04/18 03:36:46;;;;;;;;;;;;;;;7.67;69.18;99624.09;4976245;28;19953;-69
2021/04/18 03:39:19;;;;;;;;;;;;;;;7.65;68.58;99624.09;4975743;28;19962;-67
2021/04/18 03:41:49;;;;;;;;;;;;;;;7.62;69.07;99621.53;4990641;28;19933;-67
2021/04/18 03:44:21;;;;;;;;;;;;;;;7.58;69.15;99627.41;4975904;28;19933;-68
2021/04/18 03:46:52;;;;;;;;;;;;;;;7.56;69.34;99631.59;4975555;28;19926;-68
2021/04/18 03:49:34;;;;;;;;;;;;;;;7.54;69.56;99633.28;4990795;28;20016;-68
2021/04/18 03:52:22;;;;;;;;;;;;;;;7.52;69.52;99634.09;4973770;28;19926;-68
2021/04/18 03:54:52;;;;;;;;;;;;;;;7.51;69.14;99628.16;4973822;28;19926;-68
2021/04/18 03:57:21;;;;;;;;;;;;;;;7.53;69.53;99630.72;4973696;28;19933;-68
2021/04/18 03:59:50;;;;;;;;;;;;;;;7.53;69.37;99631.59;4973393;28;19977;-67
2021/04/18 04:02:21;;;;;;;;;;;;;;;7.54;69.38;99638.34;4973220;28;19926;-67
2021/04/18 04:04:51;;;;;;;;;;;;;;;7.54;69.49;99640.91;4973354;28;20049;-67
2021/04/18 04:07:28;;;;;;;;;;;;;;;7.53;69.21;99639.22;4973296;28;19993;-67
2021/04/18 04:09:57;;;;;;;;;;;;;;;7.52;69.68;99645.13;4973478;28;19933;-66
2021/04/18 04:12:27;;;;;;;;;;;;;;;7.51;69.83;99633.22;4973473;28;20292;-67
2021/04/18 04:14:55;;;;;;;;;;;;;;;7.50;69.48;99635.78;4973058;28;19976;-67
2021/04/18 04:17:26;;;;;;;;;;;;;;;7.48;69.71;99633.22;4957149;28;19926;-68
2021/04/18 04:20:06;;;;;;;;;;;;;;;7.49;69.77;99634.06;4961058;28;20458;-68
2021/04/18 04:22:53;;;;;;;;;;;;;;;7.49;69.28;99634.91;4977814;28;19926;-68
2021/04/18 04:25:28;;;;;;;;;;;;;;;7.49;69.82;99632.38;4979124;28;20384;-68
2021/04/18 04:27:59;;;;;;;;;;;;;;;7.48;69.43;99630.69;4979070;28;19933;-67
2021/04/18 04:30:28;;;;;;;;;;;;;;;7.48;69.63;99629.81;4979219;28;19934;-68
2021/04/18 04:32:59;;;;;;;;;;;;;;;7.47;69.50;99634.06;4978904;28;19927;-67
2021/04/18 04:35:31;;;;;;;;;;;;;;;7.48;69.70;99633.22;4979194;28;19930;-68
2021/04/18 04:38:02;;;;;;;;;;;;;;;7.49;69.77;99628.97;4979123;28;19926;-68
2021/04/18 04:40:31;;;;;;;;;;;;;;;7.48;69.28;99633.22;4978816;28;20269;-67
2021/04/18 04:42:59;;;;;;;;;;;;;;;7.46;68.89;99634.03;4978945;28;19968;-68
2021/04/18 04:45:27;;;;;;;;;;;;;;;7.46;69.10;99639.97;4978729;28;19966;-68
2021/04/18 04:47:59;;;;;;;;;;;;;;;7.47;69.32;99641.66;4978907;28;19933;-68
2021/04/18 04:50:30;;;;;;;;;;;;;;;7.48;68.73;99633.22;4978980;28;19973;-66
2021/04/18 04:52:58;;;;;;;;;;;;;;;7.50;69.26;99638.31;4978869;28;19930;-67
2021/04/18 04:55:26;;;;;;;;;;;;;;;7.51;69.28;99643.41;4978820;28;19926;-67
2021/04/18 04:57:58;;;;;;;;;;;;;;;7.51;68.80;99633.22;4978519;28;20017;-67
2021/04/18 05:00:27;;;;;;;;;;;;;;;7.51;69.27;99634.94;4978490;28;19949;-68
2021/04/18 05:02:59;;;;;;;;;;;;;;;7.50;68.73;99636.63;4978364;28;19926;-67
2021/04/18 05:05:27;;;;;;;;;;;;;;;7.48;68.83;99638.31;4978376;28;19976;-67
2021/04/18 05:07:58;;;;;;;;;;;;;;;7.48;68.37;99635.75;4978334;28;20390;-67
2021/04/18 05:10:29;;;;;;;;;;;;;;;7.49;69.00;99634.91;4978589;28;19926;-68
2021/04/18 05:12:59;;;;;;;;;;;;;;;7.49;69.29;99637.44;4978542;28;19930;-68
2021/04/18 05:15:27;;;;;;;;;;;;;;;7.50;69.08;99631.56;4978044;28;20292;-67
2021/04/18 05:17:58;;;;;;;;;;;;;;;7.52;68.83;99639.19;4978392;28;19926;-68
2021/04/18 05:20:26;;;;;;;;;;;;;;;7.53;68.93;99636.66;4978412;28;19926;-67
2021/04/18 05:22:54;;;;;;;;;;;;;;;7.52;69.02;99640.03;4978267;28;19926;-68
2021/04/18 05:25:28;;;;;;;;;;;;;;;7.52;68.84;99634.94;4977814;28;19926;-67
2021/04/18 05:28:00;;;;;;;;;;;;;;;7.54;68.96;99643.44;4978336;28;20400;-68
2021/04/18 05:30:28;;;;;;;;;;;;;;;7.55;68.81;99640.06;4977071;28;20335;-67
2021/04/18 05:32:59;;;;;;;;;;;;;;;7.57;68.81;99646.00;4977891;28;19930;-67
2021/04/18 05:35:30;;;;;;;;;;;;;;;7.57;68.70;99643.47;4978064;28;19933;-68
2021/04/18 05:38:02;;;;;;;;;;;;;;;7.57;69.07;99643.47;4978061;28;19933;-68
2021/04/18 05:40:30;;;;;;;;;;;;;;;7.56;68.93;99640.94;4977762;28;19932;-67
2021/04/18 05:42:58;;;;;;;;;;;;;;;7.58;69.02;99641.78;4977709;28;20284;-68
2021/04/18 05:45:27;;;;;;;;;;;;;;;7.58;69.48;99639.25;4977634;28;19930;-68
2021/04/18 05:48:01;;;;;;;;;;;;;;;7.58;69.01;99642.66;4977859;28;19969;-68
2021/04/18 05:50:30;;;;;;;;;;;;;;;7.56;68.66;99641.75;4977617;28;20036;-67
2021/04/18 05:53:02;;;;;;;;;;;;;;;7.55;69.28;99640.06;4977723;28;20295;-68
2021/04/18 05:55:34;;;;;;;;;;;;;;;7.54;69.30;99643.44;4977753;28;19953;-67
2021/04/18 05:58:02;;;;;;;;;;;;;;;7.55;69.29;99640.06;4977914;28;19957;-68
2021/04/18 06:00:31;;;;;;;;;;;;;;;7.60;68.99;99637.56;4977591;28;20360;-67
2021/04/18 06:02:59;;;;;;;;;;;;;;;7.61;69.53;99645.19;4977546;28;19961;-68
2021/04/18 06:05:27;;;;;;;;;;;;;;;7.64;69.18;99645.25;4977285;28;19926;-68
2021/04/18 06:07:59;;;;;;;;;;;;;;;7.67;69.27;99630.03;4977145;28;19981;-68
2021/04/18 06:10:27;;;;;;;;;;;;;;;7.70;68.93;99639.38;4977770;28;19926;-67
2021/04/18 06:12:58;;;;;;;;;;;;;;;7.70;69.18;99635.13;4977014;28;19927;-68
2021/04/18 06:15:30;;;;;;;;;;;;;;;7.70;69.09;99634.31;4976949;28;19968;-68
2021/04/18 06:18:01;;;;;;;;;;;;;;;7.70;69.18;99627.50;4977107;28;20016;-69
2021/04/18 06:20:29;;;;;;;;;;;;;;;7.73;68.90;99642.78;4976918;28;19926;-69
2021/04/18 06:23:00;;;;;;;;;;;;;;;7.73;69.15;99645.31;4976957;28;19936;-70
2021/04/18 06:25:28;;;;;;;;;;;;;;;7.74;68.62;99636.88;4977006;28;19937;-69
2021/04/18 06:27:59;;;;;;;;;;;;;;;7.79;69.14;99640.31;4977022;28;19973;-68
2021/04/18 06:30:27;;;;;;;;;;;;;;;7.80;68.88;99636.94;4991876;28;19933;-69
2021/04/18 06:32:56;;;;;;;;;;;;;;;7.83;68.62;99639.50;4976974;28;19931;-69
2021/04/18 06:35:25;;;;;;;;;;;;;;;7.86;69.13;99631.91;4976923;28;19926;-70
2021/04/18 06:38:04;;;;;;;;;;;;;;;7.92;68.44;99634.50;4977561;28;19989;-70
2021/04/18 06:40:39;;;;;;;;;;;;;;;7.91;68.26;99630.28;4976774;28;19949;-70
2021/04/18 06:43:08;;;;;;;;;;;;;;;7.92;68.08;99628.56;4975609;28;19926;-69
2021/04/18 06:45:36;;;;;;;;;;;;;;;7.93;68.38;99633.69;4976747;28;19933;-69
2021/04/18 06:48:13;;;;;;;;;;;;;;;7.93;68.44;99633.69;4976450;28;20051;-70
2021/04/18 06:50:42;;;;;;;;;;;;;;;7.96;68.72;99637.94;4976252;28;20362;-69
2021/04/18 06:53:10;;;;;;;;;;;;;;;7.99;68.56;99637.97;4976443;28;19926;-70
2021/04/18 06:55:38;;;;;;;;;;;;;;;8.03;68.05;99644.78;4976554;28;19989;-69
2021/04/18 06:58:10;;;;;;;;;;;;;;;8.03;68.33;99647.31;4976456;28;19969;-69
2021/04/18 07:00:39;;;;;;;;;;;;;;;8.06;68.30;99640.53;4976276;28;19985;-70
2021/04/18 07:03:18;;;;;;;;;;;;;;;8.10;67.78;99637.22;4976665;28;19933;-68
2021/04/18 07:05:47;;;;;;;;;;;;;;;8.13;68.11;99640.63;4976198;28;19926;-68
2021/04/18 07:08:20;;;;;;;;;;;;;;;8.15;67.30;99641.47;4976200;28;19926;-70
2021/04/18 07:10:51;;;;;;;;;;;;;;;8.20;67.65;99647.44;4976303;28;19977;-69
2021/04/18 07:13:20;;;;;;;;;;;;;;;8.27;68.10;99644.16;4976037;28;19948;-69
2021/04/18 07:15:48;;;;;;;;;;;;;;;8.33;67.40;99646.72;4974755;28;20008;-70
2021/04/18 07:18:31;;;;;;;;;;;;;;;8.36;67.46;99650.16;4972331;28;19926;-69
2021/04/18 07:21:00;;;;;;;;;;;;;;;8.39;67.19;99646.78;4975611;28;19926;-68
2021/04/18 07:23:29;;;;;;;;;;;;;;;8.38;67.41;99645.06;4975829;28;19977;-68
2021/04/18 07:25:58;;;;;;;;;;;;;;;8.36;67.13;99644.22;4975533;28;19930;-69
2021/04/18 07:28:29;;;;;;;;;;;;;;;8.41;66.57;99642.56;4975145;28;19969;-68
2021/04/18 07:31:02;;;;;;;;;;;;;;;8.48;66.84;99636.69;4975550;28;19929;-69
2021/04/18 07:33:30;;;;;;;;;;;;;;;8.53;66.65;99640.97;4975734;28;19926;-68
2021/04/18 07:35:59;;;;;;;;;;;;;;;8.58;66.54;99641.00;4975392;28;19946;-70
2021/04/18 07:38:29;;;;;;;;;;;;;;;8.65;66.88;99637.63;4973875;28;19926;-69
2021/04/18 07:40:58;;;;;;;;;;;;;;;8.72;66.88;99631.75;4975806;28;19985;-68
2021/04/18 07:43:26;;;;;;;;;;;;;;;8.78;66.32;99637.72;4975781;28;20009;-68
2021/04/18 07:45:54;;;;;;;;;;;;;;;8.83;65.90;99632.66;4975269;28;19933;-70
2021/04/18 07:48:22;;;;;;;;;;;;;;;8.91;66.27;99635.22;4975178;28;19981;-69
2021/04/18 07:50:51;;;;;;;;;;;;;;;8.96;65.68;99639.50;4975327;28;19926;-69
2021/04/18 07:53:21;;;;;;;;;;;;;;;9.01;65.82;99637.84;4974682;28;20410;-70
2021/04/18 07:55:51;;;;;;;;;;;;;;;9.12;65.81;99641.28;4975142;28;19926;-69
2021/04/18 07:58:19;;;;;;;;;;;;;;;9.26;64.75;99638.81;4975244;28;19936;-69
2021/04/18 08:00:46;;;;;;;;;;;;;;;9.36;64.75;99641.38;4975254;28;19980;-70
2021/04/18 08:03:17;;;;;;;;;;;;;;;9.53;65.28;99643.97;4974510;28;20186;-70
2021/04/18 08:05:45;;;;;;;;;;;;;;;9.69;64.34;99639.78;4975029;28;20017;-69
2021/04/18 08:08:14;;;;;;;;;;;;;;;9.90;63.60;99637.25;4975204;28;19980;-70
2021/04/18 08:10:43;;;;;;;;;;;;;;;10.03;63.92;99641.50;4975077;28;20046;-69
2021/04/18 08:13:14;;;;;;;;;;;;;;;10.03;63.09;99646.59;4974954;28;19926;-69
2021/04/18 08:15:43;;;;;;;;;;;;;;;10.10;62.68;99644.06;4974918;28;19957;-69
2021/04/18 08:18:12;;;;;;;;;;;;;;;10.23;62.74;99639.84;4975334;28;20013;-69
2021/04/18 08:20:41;;;;;;;;;;;;;;;10.36;62.32;99639.00;4974999;28;20281;-69
2021/04/18 08:23:10;;;;;;;;;;;;;;;10.51;61.20;99641.53;4957863;28;19926;-69
2021/04/18 08:25:38;;;;;;;;;;;;;;;10.67;61.00;99642.38;4974821;28;19977;-69
2021/04/18 08:28:08;;;;;;;;;;;;;;;10.67;61.13;99638.13;4974988;28;19926;-68
2021/04/18 08:30:46;;;;;;;;;;;;;;;10.72;60.63;99641.50;4974878;28;19973;-69
2021/04/18 08:33:41;;;;;;;;;;;;;;;10.87;60.07;99635.50;4974865;28;19948;-69
2021/04/18 08:36:11;;;;;;;;;;;;;;;11.04;60.38;99638.00;4975267;28;20021;-69
2021/04/18 08:38:39;;;;;;;;;;;;;;;11.32;60.15;99634.50;4957685;28;19958;-69
2021/04/18 08:41:12;;;;;;;;;;;;;;;11.44;59.69;99640.38;4974829;28;19933;-68
2021/04/18 08:43:41;;;;;;;;;;;;;;;11.54;58.83;99636.06;4974949;28;20303;-68
2021/04/18 08:46:09;;;;;;;;;;;;;;;11.60;58.50;99630.94;4974694;28;19949;-69
2021/04/18 08:48:44;;;;;;;;;;;;;;;11.81;58.61;99629.97;4957635;28;19949;-70
2021/04/18 08:51:13;;;;;;;;;;;;;;;11.97;58.06;99617.06;4975169;28;19982;-68
2021/04/18 08:53:51;;;;;;;;;;;;;;;12.06;57.86;99627.25;4974784;28;20016;-69
2021/04/18 08:56:19;;;;;;;;;;;;;;;12.13;57.15;99622.09;4974796;28;20367;-68
2021/04/18 08:58:47;;;;;;;;;;;;;;;12.44;57.31;99619.25;4974750;28;19930;-69
2021/04/18 09:01:15;;;;;;;;;;;;;;;12.75;57.29;99615.53;4974645;28;19927;-69
2021/04/18 09:03:58;;;;;;;;;;;;;;;12.91;56.48;99616.19;4974669;28;19982;-68
2021/04/18 09:06:33;;;;;;;;;;;;;;;13.20;55.68;99614.19;4977260;28;19930;-70
2021/04/18 09:09:03;;;;;;;;;;;;;;;13.18;54.67;99612.50;4978620;28;19973;-68
2021/04/18 09:11:36;;;;;;;;;;;;;;;13.25;54.52;99614.13;4978177;28;19926;-69
2021/04/18 09:14:04;;;;;;;;;;;;;;;13.48;54.69;99608.69;4978263;28;20423;-70
2021/04/18 09:16:32;;;;;;;;;;;;;;;13.75;54.22;99605.75;4977728;28;19926;-69
2021/04/18 09:19:13;;;;;;;;;;;;;;;13.77;53.64;99609.16;4978124;28;19926;-69
2021/04/18 09:21:42;;;;;;;;;;;;;;;13.88;53.18;99607.25;4977615;28;19969;-69
2021/04/18 09:24:10;;;;;;;;;;;;;;;13.92;52.47;99604.63;4978129;28;19934;-68
2021/04/18 09:26:38;;;;;;;;;;;;;;;13.89;52.57;99606.41;4977678;28;20008;-69
2021/04/18 09:29:10;;;;;;;;;;;;;;;13.97;52.73;99604.53;4977765;28;19926;-68
2021/04/18 09:31:52;;;;;;;;;;;;;;;14.21;52.96;99601.56;4977668;28;20304;-70
2021/04/18 09:34:21;;;;;;;;;;;;;;;14.29;52.19;99597.16;4976132;28;19934;-69
2021/04/18 09:36:50;;;;;;;;;;;;;;;14.05;51.75;99592.44;4960224;28;20281;-70
2021/04/18 09:39:19;;;;;;;;;;;;;;;13.94;50.67;99600.28;4977808;28;19937;-70
2021/04/18 09:41:48;;;;;;;;;;;;;;;13.87;51.42;99587.59;4978124;28;19926;-69
2021/04/18 09:44:27;;;;;;;;;;;;;;;13.71;51.71;99594.69;4977481;28;20294;-69
2021/04/18 09:47:08;;;;;;;;;;;;;;;13.79;51.43;99597.13;4977322;28;19974;-69
2021/04/18 09:49:48;;;;;;;;;;;;;;;13.75;51.60;99595.50;4977506;28;19932;-68
2021/04/18 09:52:25;;;;;;;;;;;;;;;13.85;51.36;99597.88;4977512;28;19926;-70
2021/04/18 09:54:53;;;;;;;;;;;;;;;14.15;51.44;99595.72;4977030;28;19926;-70
2021/04/18 09:57:24;;;;;;;;;;;;;;;14.36;51.18;99597.94;4977133;28;19926;-71
2021/04/18 10:00:02;;;;;;;;;;;;;;;14.41;50.83;99594.44;4977344;28;20024;-68
2021/04/18 10:02:32;;;;;;;;;;;;;;;14.61;50.73;99592.31;4977558;28;19932;-70
2021/04/18 10:05:09;;;;;;;;;;;;;;;14.83;50.27;99589.38;4977374;28;20261;-71
2021/04/18 10:07:42;;;;;;;;;;;;;;;15.06;50.00;99589.75;4977243;28;19926;-70
2021/04/18 10:10:29;;;;;;;;;;;;;;;15.22;49.74;99588.56;4977408;28;19973;-70
2021/04/18 10:13:00;;;;;;;;;;;;;;;15.21;48.53;99592.03;4977728;28;20027;-69
2021/04/18 10:15:28;;;;;;;;;;;;;;;15.08;47.71;99590.56;4976754;28;19988;-70
2021/04/18 10:18:08;;;;;;;;;;;;;;;15.10;47.68;99583.66;4976932;28;20010;-70
2021/04/18 10:20:37;;;;;;;;;;;;;;;15.15;47.99;99574.13;4977268;28;19926;-70
2021/04/18 10:23:07;;;;;;;;;;;;;;;15.42;48.29;99570.97;4976962;28;19953;-69
2021/04/18 10:25:36;;;;;;;;;;;;;;;15.65;47.33;99567.91;4976916;28;19926;-69
2021/04/18 10:28:06;;;;;;;;;;;;;;;15.69;47.43;99560.09;4976680;28;19981;-69
2021/04/18 10:30:45;;;;;;;;;;;;;;;15.78;47.06;99567.63;4960833;28;20372;-70
2021/04/18 10:33:17;;;;;;;;;;;;;;;15.69;46.42;99560.09;4976642;28;20339;-69
2021/04/18 10:35:45;;;;;;;;;;;;;;;15.61;47.26;99564.56;4976965;28;20450;-70
2021/04/18 10:38:14;;;;;;;;;;;;;;;15.66;46.71;99560.19;4976629;28;20443;-71
2021/04/18 10:40:42;;;;;;;;;;;;;;;15.85;47.08;99561.44;4976823;28;20388;-70
2021/04/18 10:43:11;;;;;;;;;;;;;;;15.91;46.42;99561.28;4976456;28;20406;-69
2021/04/18 10:45:40;;;;;;;;;;;;;;;16.07;45.98;99552.31;4976423;28;20306;-70
2021/04/18 10:48:08;;;;;;;;;;;;;;;16.39;47.17;99555.75;4976956;28;19930;-71
2021/04/18 10:50:41;;;;;;;;;;;;;;;16.63;46.24;99552.56;4977013;28;20017;-71
2021/04/18 10:53:09;;;;;;;;;;;;;;;16.50;46.33;99556.34;4976997;28;19936;-69
2021/04/18 10:55:56;;;;;;;;;;;;;;;16.28;45.89;99547.47;4976583;28;19930;-69
2021/04/18 10:58:29;;;;;;;;;;;;;;;16.00;46.38;99550.75;4976547;28;19962;-69
2021/04/18 11:01:00;;;;;;;;;;;;;;;15.52;46.34;99549.34;4975284;28;20368;-69
2021/04/18 11:03:32;;;;;;;;;;;;;;;15.07;47.21;99543.44;4960391;28;19957;-68
2021/04/18 11:06:02;;;;;;;;;;;;;;;14.90;46.68;99554.97;4956730;29;19966;-68
2021/04/18 11:08:30;;;;;;;;;;;;;;;14.79;47.03;99547.47;4956956;29;19926;-69
2021/04/18 11:10:59;;;;;;;;;;;;;;;14.70;47.85;99553.66;4956771;29;20407;-70
2021/04/18 11:13:30;;;;;;;;;;;;;;;14.59;48.37;99550.41;4956956;29;20370;-69
2021/04/18 11:16:02;;;;;;;;;;;;;;;14.62;49.00;99555.50;4966662;28;20303;-69
2021/04/18 11:18:30;;;;;;;;;;;;;;;14.50;48.42;99550.59;4976397;28;19988;-68
2021/04/18 11:21:04;;;;;;;;;;;;;;;14.39;48.73;99552.53;4976374;28;19937;-69
2021/04/18 11:23:36;;;;;;;;;;;;;;;14.40;49.27;99549.06;4976155;28;19968;-69
2021/04/18 11:26:06;;;;;;;;;;;;;;;14.39;49.20;99551.69;4975703;28;20423;-70
2021/04/18 11:28:34;;;;;;;;;;;;;;;14.35;49.33;99550.88;4975088;28;19949;-70
2021/04/18 11:31:02;;;;;;;;;;;;;;;14.36;50.12;99552.56;4975706;28;19927;-70
2021/04/18 11:33:30;;;;;;;;;;;;;;;14.41;50.54;99544.78;4975623;28;19933;-69
2021/04/18 11:36:02;;;;;;;;;;;;;;;14.41;49.85;99542.22;4975645;28;19946;-69
2021/04/18 11:38:30;;;;;;;;;;;;;;;14.42;49.74;99547.31;4975628;28;20303;-68
2021/04/18 11:40:58;;;;;;;;;;;;;;;14.44;50.26;99550.72;4975561;28;19938;-69
2021/04/18 11:43:30;;;;;;;;;;;;;;;14.47;50.03;99550.66;4975719;28;20030;-70
2021/04/18 11:45:58;;;;;;;;;;;;;;;14.37;49.61;99548.28;4975530;28;19930;-70
2021/04/18 11:48:27;;;;;;;;;;;;;;;14.43;50.18;99543.88;4974230;28;20025;-69
2021/04/18 11:50:55;;;;;;;;;;;;;;;14.53;50.54;99545.41;4975908;28;19941;-70
2021/04/18 11:53:23;;;;;;;;;;;;;;;14.56;50.44;99539.38;4975624;28;19958;-69
2021/04/18 11:55:52;;;;;;;;;;;;;;;14.59;50.09;99540.13;4975346;28;19927;-69
2021/04/18 11:58:24;;;;;;;;;;;;;;;14.62;50.34;99541.81;4975396;28;19969;-69
2021/04/18 12:00:57;;;;;;;;;;;;;;;14.61;50.07;99537.56;4975567;28;19942;-69
2021/04/18 12:03:28;;;;;;;;;;;;;;;14.56;50.29;99537.66;4975608;28;19977;-69
2021/04/18 12:05:59;;;;;;;;;;;;;;;14.50;50.53;99535.19;4975166;28;19933;-69
2021/04/18 12:08:34;;;;;;;;;;;;;;;14.48;50.58;99536.94;4975550;28;19926;-69
2021/04/18 12:11:04;;;;;;;;;;;;;;;14.49;50.56;99538.63;4975784;28;19976;-68
2021/04/18 12:13:32;;;;;;;;;;;;;;;14.51;50.45;99542.03;4975353;28;19933;-69
2021/04/18 12:16:02;;;;;;;;;;;;;;;14.47;49.86;99537.81;4975068;28;19933;-69
2021/04/18 12:18:33;;;;;;;;;;;;;;;14.45;50.06;99536.13;4975137;28;19926;-69
2021/04/18 12:21:04;;;;;;;;;;;;;;;14.44;49.91;99545.59;4975270;28;19926;-70
2021/04/18 12:23:33;;;;;;;;;;;;;;;14.45;49.89;99531.84;4975186;28;19932;-69
2021/04/18 12:26:05;;;;;;;;;;;;;;;14.42;49.40;99533.66;4975049;28;19934;-69
2021/04/18 12:28:33;;;;;;;;;;;;;;;14.34;49.57;99536.34;4975325;28;19933;-70
2021/04/18 12:31:07;;;;;;;;;;;;;;;14.35;49.66;99535.47;4975831;28;19926;-70
2021/04/18 12:33:36;;;;;;;;;;;;;;;14.30;50.15;99532.13;4974991;28;19972;-70
2021/04/18 12:36:09;;;;;;;;;;;;;;;14.37;49.99;99533.72;4975283;28;19973;-70
2021/04/18 12:38:37;;;;;;;;;;;;;;;14.35;49.60;99514.09;4975409;28;20014;-69
2021/04/18 12:41:06;;;;;;;;;;;;;;;14.38;50.07;99527.72;4979075;28;19969;-70
2021/04/18 12:43:34;;;;;;;;;;;;;;;14.52;50.13;99524.88;4979033;28;19926;-69
2021/04/18 12:46:07;;;;;;;;;;;;;;;14.50;49.23;99524.91;4978819;28;19926;-69
2021/04/18 12:48:37;;;;;;;;;;;;;;;14.38;48.79;99520.00;4994030;28;19926;-69
2021/04/18 12:51:08;;;;;;;;;;;;;;;14.32;48.06;99525.28;4978739;28;19926;-68
2021/04/18 12:53:36;;;;;;;;;;;;;;;14.30;48.31;99521.00;4978841;28;19950;-69
2021/04/18 12:56:05;;;;;;;;;;;;;;;14.29;48.49;99522.72;4979609;28;19926;-70
2021/04/18 12:58:34;;;;;;;;;;;;;;;14.27;48.55;99521.06;4978344;28;19969;-69
2021/04/18 13:01:02;;;;;;;;;;;;;;;14.27;48.96;99519.34;4978418;28;19926;-70
2021/04/18 13:03:31;;;;;;;;;;;;;;;14.30;49.21;99515.88;4978414;28;20368;-70
2021/04/18 13:06:03;;;;;;;;;;;;;;;14.30;49.30;99509.03;4978333;28;19934;-70
2021/04/18 13:08:34;;;;;;;;;;;;;;;14.21;49.14;99516.88;4978631;28;19933;-69
2021/04/18 13:11:05;;;;;;;;;;;;;;;14.10;48.74;99513.66;4978562;28;20054;-69
2021/04/18 13:13:33;;;;;;;;;;;;;;;14.07;48.92;99508.56;4978534;28;19927;-69
2021/04/18 13:16:05;;;;;;;;;;;;;;;14.05;49.11;99510.31;4978027;28;19941;-68